Pond Cove, Maine
Current Conditions -  °F | °C
As of 12:51 AM on Monday 26 Jan 2015 (Local Time) from KPWM Reporting Station
Clear Clear  
Wind Chill:   Ceiling: Unl
Heat Index: 10°   Visibility: 10mi
Dew Point: -5°   Wind: 6mph
Humidity: 51%   Direction: 320°NW
Pressure: 30.07"   Gusts: NA
Location:  43.5903°N, 70.2379°W
Report Text: KPWM 260551Z AUTO 32005KT 10SM CLR M12/M21 A3007 RMK AO2 SLP182 T11221206 11067 21122 51024 $
Loading
Personal Weather Stations






























Interactive Weather Map New forecast layout! Learn more

10-Day Weather Forecast

Advertisements
Track Severe Weather on mobile